Terminal Aerodrome Forecast
Issued by NWS

Home | Current Version | Previous Version | Graphics & Text | Print | Product List | Glossary Off
Versions: 1 2 3 4 5 6 7 8 9 10 11 12 13 14 15 16 17 18 19 20 21 22 23 24 25

000
FTUS43 KLOT 240314 AAA
TAFDPA
TAF AMD
KDPA 240314Z 2403/2424 05003KT 6SM -SHRA BR SCT010 OVC060
     FM240900 03007KT 3SM BR VCSH SCT003 OVC007
     FM241500 03010KT P6SM VCSH SCT009 BKN015
     FM241800 02012G20KT P6SM SCT009 SCT020 BKN090=

USA.gov is the U.S. government's official web portal to all federal, state and local government web resources and services.